sensor_id;sensor_type;location;lat;lon;timestamp;temperature;humidity
25949;DHT22;13961;51.178;4.448;2023-03-31T00:02:00;12.90;99.90
25949;DHT22;13961;51.178;4.448;2023-03-31T00:04:27;12.80;99.90
25949;DHT22;13961;51.178;4.448;2023-03-31T00:06:56;12.90;99.90
25949;DHT22;13961;51.178;4.448;2023-03-31T00:09:22;12.90;99.90
25949;DHT22;13961;51.178;4.448;2023-03-31T00:11:48;12.90;99.90
25949;DHT22;13961;51.178;4.448;2023-03-31T00:14:15;12.90;99.90
25949;DHT22;13961;51.178;4.448;2023-03-31T00:16:42;13.00;99.90
25949;DHT22;13961;51.178;4.448;2023-03-31T00:19:09;12.90;99.90
25949;DHT22;13961;51.178;4.448;2023-03-31T00:21:48;12.80;99.90
25949;DHT22;13961;51.178;4.448;2023-03-31T00:24:17;12.80;99.90
25949;DHT22;13961;51.178;4.448;2023-03-31T00:26:43;12.80;99.90
25949;DHT22;13961;51.178;4.448;2023-03-31T00:29:11;12.80;99.90
25949;DHT22;13961;51.178;4.448;2023-03-31T00:31:37;12.80;99.90
25949;DHT22;13961;51.178;4.448;2023-03-31T00:34:04;12.80;99.90
25949;DHT22;13961;51.178;4.448;2023-03-31T00:36:30;12.70;99.90
25949;DHT22;13961;51.178;4.448;2023-03-31T00:39:00;12.70;99.90
25949;DHT22;13961;51.178;4.448;2023-03-31T00:41:34;12.70;99.90
25949;DHT22;13961;51.178;4.448;2023-03-31T00:44:18;12.70;99.90
25949;DHT22;13961;51.178;4.448;2023-03-31T00:47:11;12.60;99.90
25949;DHT22;13961;51.178;4.448;2023-03-31T00:49:41;12.70;99.90
25949;DHT22;13961;51.178;4.448;2023-03-31T00:52:26;12.70;99.90
25949;DHT22;13961;51.178;4.448;2023-03-31T00:54:57;12.60;99.90
25949;DHT22;13961;51.178;4.448;2023-03-31T00:57:24;12.50;99.90
25949;DHT22;13961;51.178;4.448;2023-03-31T00:59:56;12.50;99.90
25949;DHT22;13961;51.178;4.448;2023-03-31T01:02:23;12.40;99.90
25949;DHT22;13961;51.178;4.448;2023-03-31T01:04:52;12.30;99.90
25949;DHT22;13961;51.178;4.448;2023-03-31T01:07:25;12.30;99.90
25949;DHT22;13961;51.178;4.448;2023-03-31T01:09:57;12.30;99.90
25949;DHT22;13961;51.178;4.448;2023-03-31T01:12:26;12.30;99.90
25949;DHT22;13961;51.178;4.448;2023-03-31T01:14:52;12.30;99.90
25949;DHT22;13961;51.178;4.448;2023-03-31T01:17:19;12.20;99.90
25949;DHT22;13961;51.178;4.448;2023-03-31T01:28:41;12.20;99.90
25949;DHT22;13961;51.178;4.448;2023-03-31T01:34:24;12.10;99.90
25949;DHT22;13961;51.178;4.448;2023-03-31T01:37:15;12.00;99.90
25949;DHT22;13961;51.178;4.448;2023-03-31T01:45:50;11.90;99.90
25949;DHT22;13961;51.178;4.448;2023-03-31T01:48:25;11.80;99.90
25949;DHT22;13961;51.178;4.448;2023-03-31T01:51:47;11.90;99.90
25949;DHT22;13961;51.178;4.448;2023-03-31T01:53:50;12.00;99.90
25949;DHT22;13961;51.178;4.448;2023-03-31T01:56:31;11.90;99.90
25949;DHT22;13961;51.178;4.448;2023-03-31T01:59:07;11.90;99.90
25949;DHT22;13961;51.178;4.448;2023-03-31T02:01:59;12.00;99.90
25949;DHT22;13961;51.178;4.448;2023-03-31T02:04:59;11.90;99.90
25949;DHT22;13961;51.178;4.448;2023-03-31T02:07:35;12.00;99.90
25949;DHT22;13961;51.178;4.448;2023-03-31T02:10:06;11.90;99.90
25949;DHT22;13961;51.178;4.448;2023-03-31T02:12:33;12.00;99.90
25949;DHT22;13961;51.178;4.448;2023-03-31T02:15:04;12.00;99.90
25949;DHT22;13961;51.178;4.448;2023-03-31T02:17:32;11.90;99.90
25949;DHT22;13961;51.178;4.448;2023-03-31T02:20:08;11.90;99.90
25949;DHT22;13961;51.178;4.448;2023-03-31T02:22:39;11.80;99.90
25949;DHT22;13961;51.178;4.448;2023-03-31T02:25:09;11.80;99.90
25949;DHT22;13961;51.178;4.448;2023-03-31T02:27:40;11.80;99.90
25949;DHT22;13961;51.178;4.448;2023-03-31T02:30:08;11.80;99.90
25949;DHT22;13961;51.178;4.448;2023-03-31T02:32:43;11.90;99.90
25949;DHT22;13961;51.178;4.448;2023-03-31T02:35:15;12.00;99.90
25949;DHT22;13961;51.178;4.448;2023-03-31T02:37:42;12.00;99.90
25949;DHT22;13961;51.178;4.448;2023-03-31T02:40:14;12.10;99.90
25949;DHT22;13961;51.178;4.448;2023-03-31T02:42:41;11.90;99.90
25949;DHT22;13961;51.178;4.448;2023-03-31T02:45:41;11.80;99.90
25949;DHT22;13961;51.178;4.448;2023-03-31T02:48:10;11.80;99.90
25949;DHT22;13961;51.178;4.448;2023-03-31T03:05:44;11.50;99.90
25949;DHT22;13961;51.178;4.448;2023-03-31T03:16:23;11.20;99.90
25949;DHT22;13961;51.178;4.448;2023-03-31T03:19:03;11.00;99.90
25949;DHT22;13961;51.178;4.448;2023-03-31T03:21:31;11.10;99.90
25949;DHT22;13961;51.178;4.448;2023-03-31T03:23:57;11.10;99.90
25949;DHT22;13961;51.178;4.448;2023-03-31T03:26:24;11.00;99.90
25949;DHT22;13961;51.178;4.448;2023-03-31T03:28:53;11.00;99.90
25949;DHT22;13961;51.178;4.448;2023-03-31T03:31:20;11.00;99.90
25949;DHT22;13961;51.178;4.448;2023-03-31T03:33:49;11.00;99.90
25949;DHT22;13961;51.178;4.448;2023-03-31T03:36:15;11.10;99.90
25949;DHT22;13961;51.178;4.448;2023-03-31T03:38:41;11.20;99.90
25949;DHT22;13961;51.178;4.448;2023-03-31T03:41:07;11.20;99.90
25949;DHT22;13961;51.178;4.448;2023-03-31T03:43:33;11.20;99.90
25949;DHT22;13961;51.178;4.448;2023-03-31T03:45:59;11.20;99.90
25949;DHT22;13961;51.178;4.448;2023-03-31T03:48:25;11.00;99.90
25949;DHT22;13961;51.178;4.448;2023-03-31T03:50:51;11.00;99.90
25949;DHT22;13961;51.178;4.448;2023-03-31T03:53:17;11.00;99.90
25949;DHT22;13961;51.178;4.448;2023-03-31T03:55:43;11.10;99.90
25949;DHT22;13961;51.178;4.448;2023-03-31T03:58:10;11.00;99.90
25949;DHT22;13961;51.178;4.448;2023-03-31T04:00:36;10.90;99.90
25949;DHT22;13961;51.178;4.448;2023-03-31T04:03:01;10.80;99.90
25949;DHT22;13961;51.178;4.448;2023-03-31T04:05:28;10.90;99.90
25949;DHT22;13961;51.178;4.448;2023-03-31T04:07:54;10.90;99.90
25949;DHT22;13961;51.178;4.448;2023-03-31T04:10:20;10.90;99.90
25949;DHT22;13961;51.178;4.448;2023-03-31T04:12:45;10.90;99.90
25949;DHT22;13961;51.178;4.448;2023-03-31T04:15:11;10.90;99.90
25949;DHT22;13961;51.178;4.448;2023-03-31T04:17:37;10.90;99.90
25949;DHT22;13961;51.178;4.448;2023-03-31T04:20:05;11.00;99.90
25949;DHT22;13961;51.178;4.448;2023-03-31T04:22:32;11.10;99.90
25949;DHT22;13961;51.178;4.448;2023-03-31T04:27:40;11.00;99.90
25949;DHT22;13961;51.178;4.448;2023-03-31T04:30:14;11.00;99.90
25949;DHT22;13961;51.178;4.448;2023-03-31T04:32:57;11.20;99.90
25949;DHT22;13961;51.178;4.448;2023-03-31T04:35:25;11.30;99.90
25949;DHT22;13961;51.178;4.448;2023-03-31T04:37:52;11.40;99.90
25949;DHT22;13961;51.178;4.448;2023-03-31T04:40:23;11.40;99.90
25949;DHT22;13961;51.178;4.448;2023-03-31T04:42:50;11.30;99.90
25949;DHT22;13961;51.178;4.448;2023-03-31T04:45:16;11.30;99.90
25949;DHT22;13961;51.178;4.448;2023-03-31T04:47:42;11.40;99.90
25949;DHT22;13961;51.178;4.448;2023-03-31T04:50:08;11.40;99.90
25949;DHT22;13961;51.178;4.448;2023-03-31T04:52:35;11.30;99.90
25949;DHT22;13961;51.178;4.448;2023-03-31T04:55:01;11.40;99.90
25949;DHT22;13961;51.178;4.448;2023-03-31T04:57:27;11.50;99.90
25949;DHT22;13961;51.178;4.448;2023-03-31T04:59:53;11.40;99.90
25949;DHT22;13961;51.178;4.448;2023-03-31T05:02:18;11.30;99.90
25949;DHT22;13961;51.178;4.448;2023-03-31T05:04:50;11.30;99.90
25949;DHT22;13961;51.178;4.448;2023-03-31T05:07:17;11.20;99.90
25949;DHT22;13961;51.178;4.448;2023-03-31T05:09:46;11.10;99.90
25949;DHT22;13961;51.178;4.448;2023-03-31T05:12:11;11.10;99.90
25949;DHT22;13961;51.178;4.448;2023-03-31T05:14:37;11.20;99.90
25949;DHT22;13961;51.178;4.448;2023-03-31T05:17:03;11.20;99.90
25949;DHT22;13961;51.178;4.448;2023-03-31T05:19:28;11.30;99.90
25949;DHT22;13961;51.178;4.448;2023-03-31T05:21:54;11.40;99.90
25949;DHT22;13961;51.178;4.448;2023-03-31T05:24:20;11.30;99.90
25949;DHT22;13961;51.178;4.448;2023-03-31T05:26:46;11.20;99.90
25949;DHT22;13961;51.178;4.448;2023-03-31T05:29:17;11.00;99.90
25949;DHT22;13961;51.178;4.448;2023-03-31T05:31:43;11.00;99.90
25949;DHT22;13961;51.178;4.448;2023-03-31T05:34:09;11.10;99.90
25949;DHT22;13961;51.178;4.448;2023-03-31T05:36:35;11.10;99.90
25949;DHT22;13961;51.178;4.448;2023-03-31T05:39:03;11.10;99.90
25949;DHT22;13961;51.178;4.448;2023-03-31T05:41:29;11.00;99.90
25949;DHT22;13961;51.178;4.448;2023-03-31T05:43:54;11.10;99.90
25949;DHT22;13961;51.178;4.448;2023-03-31T05:46:20;11.00;99.90
25949;DHT22;13961;51.178;4.448;2023-03-31T05:48:46;11.00;99.90
25949;DHT22;13961;51.178;4.448;2023-03-31T05:51:12;11.00;99.90
25949;DHT22;13961;51.178;4.448;2023-03-31T05:53:38;11.00;99.90
25949;DHT22;13961;51.178;4.448;2023-03-31T05:56:05;11.10;99.90
25949;DHT22;13961;51.178;4.448;2023-03-31T05:58:34;11.10;99.90
25949;DHT22;13961;51.178;4.448;2023-03-31T06:01:12;11.20;99.90
25949;DHT22;13961;51.178;4.448;2023-03-31T06:03:39;11.20;99.90
25949;DHT22;13961;51.178;4.448;2023-03-31T06:06:13;11.00;99.90
25949;DHT22;13961;51.178;4.448;2023-03-31T06:08:45;11.00;99.90
25949;DHT22;13961;51.178;4.448;2023-03-31T06:11:20;11.10;99.90
25949;DHT22;13961;51.178;4.448;2023-03-31T06:13:46;11.20;99.90
25949;DHT22;13961;51.178;4.448;2023-03-31T06:16:13;11.40;99.90
25949;DHT22;13961;51.178;4.448;2023-03-31T06:18:42;11.40;99.90
25949;DHT22;13961;51.178;4.448;2023-03-31T06:21:12;11.50;99.90
25949;DHT22;13961;51.178;4.448;2023-03-31T06:23:38;11.50;99.90
25949;DHT22;13961;51.178;4.448;2023-03-31T06:26:07;11.60;99.90
25949;DHT22;13961;51.178;4.448;2023-03-31T06:28:34;11.60;99.90
25949;DHT22;13961;51.178;4.448;2023-03-31T06:31:08;11.70;99.90
25949;DHT22;13961;51.178;4.448;2023-03-31T06:33:39;11.70;99.90
25949;DHT22;13961;51.178;4.448;2023-03-31T06:36:06;11.70;99.90
25949;DHT22;13961;51.178;4.448;2023-03-31T06:38:36;11.80;99.90
25949;DHT22;13961;51.178;4.448;2023-03-31T06:41:07;11.70;99.90
25949;DHT22;13961;51.178;4.448;2023-03-31T06:43:33;11.60;99.90
25949;DHT22;13961;51.178;4.448;2023-03-31T06:46:00;11.60;99.90
25949;DHT22;13961;51.178;4.448;2023-03-31T06:48:29;11.70;99.90
25949;DHT22;13961;51.178;4.448;2023-03-31T06:50:59;11.80;99.90
25949;DHT22;13961;51.178;4.448;2023-03-31T06:53:26;11.80;99.90
25949;DHT22;13961;51.178;4.448;2023-03-31T06:55:52;11.70;99.90
25949;DHT22;13961;51.178;4.448;2023-03-31T06:58:17;11.80;99.90
25949;DHT22;13961;51.178;4.448;2023-03-31T07:00:43;11.70;99.90
25949;DHT22;13961;51.178;4.448;2023-03-31T07:03:19;11.60;99.90
25949;DHT22;13961;51.178;4.448;2023-03-31T07:05:50;11.70;99.90
25949;DHT22;13961;51.178;4.448;2023-03-31T07:08:19;11.90;99.90
25949;DHT22;13961;51.178;4.448;2023-03-31T07:10:55;11.90;99.90
25949;DHT22;13961;51.178;4.448;2023-03-31T07:13:22;12.00;99.90
25949;DHT22;13961;51.178;4.448;2023-03-31T07:15:48;12.10;99.90
25949;DHT22;13961;51.178;4.448;2023-03-31T07:18:15;12.10;99.90
25949;DHT22;13961;51.178;4.448;2023-03-31T07:20:41;12.10;99.90
25949;DHT22;13961;51.178;4.448;2023-03-31T07:23:08;12.20;99.90
25949;DHT22;13961;51.178;4.448;2023-03-31T07:25:34;12.00;99.90
25949;DHT22;13961;51.178;4.448;2023-03-31T07:28:03;12.00;99.90
25949;DHT22;13961;51.178;4.448;2023-03-31T07:30:31;12.10;99.90
25949;DHT22;13961;51.178;4.448;2023-03-31T07:32:58;12.20;99.90
25949;DHT22;13961;51.178;4.448;2023-03-31T07:35:23;12.20;99.90
25949;DHT22;13961;51.178;4.448;2023-03-31T07:37:50;12.30;99.90
25949;DHT22;13961;51.178;4.448;2023-03-31T07:40:22;12.20;99.90
25949;DHT22;13961;51.178;4.448;2023-03-31T07:42:49;12.20;99.90
25949;DHT22;13961;51.178;4.448;2023-03-31T07:45:19;12.40;99.90
25949;DHT22;13961;51.178;4.448;2023-03-31T07:47:45;12.30;99.90
25949;DHT22;13961;51.178;4.448;2023-03-31T07:50:12;12.40;99.90
25949;DHT22;13961;51.178;4.448;2023-03-31T07:52:38;12.40;99.90
25949;DHT22;13961;51.178;4.448;2023-03-31T07:55:05;12.40;99.90
25949;DHT22;13961;51.178;4.448;2023-03-31T07:57:31;12.40;99.90
25949;DHT22;13961;51.178;4.448;2023-03-31T07:59:57;12.30;99.90
25949;DHT22;13961;51.178;4.448;2023-03-31T08:02:25;12.40;99.90
25949;DHT22;13961;51.178;4.448;2023-03-31T08:04:51;12.30;99.90
25949;DHT22;13961;51.178;4.448;2023-03-31T08:07:16;12.30;99.90
25949;DHT22;13961;51.178;4.448;2023-03-31T08:09:43;12.50;99.90
25949;DHT22;13961;51.178;4.448;2023-03-31T08:12:09;12.50;99.90
25949;DHT22;13961;51.178;4.448;2023-03-31T08:14:35;12.50;99.90
25949;DHT22;13961;51.178;4.448;2023-03-31T08:17:01;12.60;99.90
25949;DHT22;13961;51.178;4.448;2023-03-31T08:19:28;12.70;99.90
25949;DHT22;13961;51.178;4.448;2023-03-31T08:21:54;12.70;99.90
25949;DHT22;13961;51.178;4.448;2023-03-31T08:24:19;12.80;99.90
25949;DHT22;13961;51.178;4.448;2023-03-31T08:26:45;12.90;99.90
25949;DHT22;13961;51.178;4.448;2023-03-31T08:29:11;12.90;99.90
25949;DHT22;13961;51.178;4.448;2023-03-31T08:31:37;12.90;99.90
25949;DHT22;13961;51.178;4.448;2023-03-31T08:34:03;12.70;99.90
25949;DHT22;13961;51.178;4.448;2023-03-31T08:36:30;12.70;99.90
25949;DHT22;13961;51.178;4.448;2023-03-31T08:38:56;12.80;99.90
25949;DHT22;13961;51.178;4.448;2023-03-31T08:43:51;12.70;99.90
25949;DHT22;13961;51.178;4.448;2023-03-31T08:46:19;12.90;99.90
25949;DHT22;13961;51.178;4.448;2023-03-31T08:48:56;13.00;99.90
25949;DHT22;13961;51.178;4.448;2023-03-31T08:51:42;13.30;99.90
25949;DHT22;13961;51.178;4.448;2023-03-31T08:56:58;14.00;99.90
25949;DHT22;13961;51.178;4.448;2023-03-31T08:59:31;14.10;99.90
25949;DHT22;13961;51.178;4.448;2023-03-31T09:02:03;13.90;99.90
25949;DHT22;13961;51.178;4.448;2023-03-31T09:15:45;14.10;99.90
25949;DHT22;13961;51.178;4.448;2023-03-31T09:18:30;14.10;99.90
25949;DHT22;13961;51.178;4.448;2023-03-31T09:24:22;13.80;99.90
25949;DHT22;13961;51.178;4.448;2023-03-31T09:27:00;13.80;99.90
25949;DHT22;13961;51.178;4.448;2023-03-31T09:29:41;13.70;99.90
25949;DHT22;13961;51.178;4.448;2023-03-31T09:32:18;13.70;99.90
25949;DHT22;13961;51.178;4.448;2023-03-31T09:34:45;13.70;99.90
25949;DHT22;13961;51.178;4.448;2023-03-31T09:37:12;13.60;99.90
25949;DHT22;13961;51.178;4.448;2023-03-31T09:39:39;13.50;99.90
25949;DHT22;13961;51.178;4.448;2023-03-31T09:42:05;13.40;99.90
25949;DHT22;13961;51.178;4.448;2023-03-31T09:44:44;13.30;99.90
25949;DHT22;13961;51.178;4.448;2023-03-31T09:47:28;13.10;99.90
25949;DHT22;13961;51.178;4.448;2023-03-31T09:49:56;13.00;99.90
25949;DHT22;13961;51.178;4.448;2023-03-31T09:52:31;13.00;99.90
25949;DHT22;13961;51.178;4.448;2023-03-31T09:55:00;12.80;99.90
25949;DHT22;13961;51.178;4.448;2023-03-31T09:57:32;12.80;99.90
25949;DHT22;13961;51.178;4.448;2023-03-31T10:02:43;12.90;99.90
25949;DHT22;13961;51.178;4.448;2023-03-31T10:05:38;12.90;99.90
25949;DHT22;13961;51.178;4.448;2023-03-31T10:08:50;13.00;99.90
25949;DHT22;13961;51.178;4.448;2023-03-31T10:11:14;13.10;99.90
25949;DHT22;13961;51.178;4.448;2023-03-31T10:13:46;13.20;99.90
25949;DHT22;13961;51.178;4.448;2023-03-31T10:16:33;13.40;99.90
25949;DHT22;13961;51.178;4.448;2023-03-31T10:21:46;13.50;99.90
25949;DHT22;13961;51.178;4.448;2023-03-31T10:24:17;13.30;99.90
25949;DHT22;13961;51.178;4.448;2023-03-31T10:26:47;13.20;99.90
25949;DHT22;13961;51.178;4.448;2023-03-31T10:29:21;13.10;99.90
25949;DHT22;13961;51.178;4.448;2023-03-31T10:31:50;13.20;99.90
25949;DHT22;13961;51.178;4.448;2023-03-31T10:34:17;13.20;99.90
25949;DHT22;13961;51.178;4.448;2023-03-31T10:36:46;13.40;99.90
25949;DHT22;13961;51.178;4.448;2023-03-31T10:39:14;13.60;99.90
25949;DHT22;13961;51.178;4.448;2023-03-31T10:41:41;13.60;99.90
25949;DHT22;13961;51.178;4.448;2023-03-31T10:44:31;13.80;99.90
25949;DHT22;13961;51.178;4.448;2023-03-31T10:47:04;13.90;99.90
25949;DHT22;13961;51.178;4.448;2023-03-31T10:49:37;14.10;99.90
25949;DHT22;13961;51.178;4.448;2023-03-31T10:52:17;14.10;99.90
25949;DHT22;13961;51.178;4.448;2023-03-31T10:54:47;14.00;99.90
25949;DHT22;13961;51.178;4.448;2023-03-31T10:57:13;14.00;99.90
25949;DHT22;13961;51.178;4.448;2023-03-31T11:00:06;13.90;99.90
25949;DHT22;13961;51.178;4.448;2023-03-31T11:05:50;13.90;99.90
25949;DHT22;13961;51.178;4.448;2023-03-31T11:08:44;13.80;99.90
25949;DHT22;13961;51.178;4.448;2023-03-31T11:11:25;13.80;99.90
25949;DHT22;13961;51.178;4.448;2023-03-31T11:14:15;13.80;99.90
25949;DHT22;13961;51.178;4.448;2023-03-31T11:19:59;13.50;99.90
25949;DHT22;13961;51.178;4.448;2023-03-31T11:25:37;13.30;99.90
25949;DHT22;13961;51.178;4.448;2023-03-31T11:28:23;13.30;99.90
25949;DHT22;13961;51.178;4.448;2023-03-31T11:39:30;13.80;99.90
25949;DHT22;13961;51.178;4.448;2023-03-31T11:42:07;13.90;99.90
25949;DHT22;13961;51.178;4.448;2023-03-31T11:44:40;14.00;99.90
25949;DHT22;13961;51.178;4.448;2023-03-31T11:47:12;13.80;99.90
25949;DHT22;13961;51.178;4.448;2023-03-31T11:49:42;13.70;99.90
25949;DHT22;13961;51.178;4.448;2023-03-31T11:52:33;13.70;99.90
25949;DHT22;13961;51.178;4.448;2023-03-31T11:55:06;13.90;99.90
25949;DHT22;13961;51.178;4.448;2023-03-31T12:03:32;14.00;99.90
25949;DHT22;13961;51.178;4.448;2023-03-31T12:06:12;14.00;99.90
25949;DHT22;13961;51.178;4.448;2023-03-31T12:09:03;13.70;99.90
25949;DHT22;13961;51.178;4.448;2023-03-31T12:14:40;13.50;99.90
25949;DHT22;13961;51.178;4.448;2023-03-31T12:17:12;13.50;99.90
25949;DHT22;13961;51.178;4.448;2023-03-31T12:20:05;13.50;99.90
25949;DHT22;13961;51.178;4.448;2023-03-31T12:22:37;13.30;99.90
25949;DHT22;13961;51.178;4.448;2023-03-31T12:25:04;13.30;99.90
25949;DHT22;13961;51.178;4.448;2023-03-31T12:27:42;13.00;99.90
25949;DHT22;13961;51.178;4.448;2023-03-31T12:32:40;13.00;99.90
25949;DHT22;13961;51.178;4.448;2023-03-31T12:37:54;12.80;99.90
25949;DHT22;13961;51.178;4.448;2023-03-31T12:54:28;13.50;99.90
25949;DHT22;13961;51.178;4.448;2023-03-31T13:04:37;13.40;99.90
25949;DHT22;13961;51.178;4.448;2023-03-31T13:07:07;13.20;99.90
25949;DHT22;13961;51.178;4.448;2023-03-31T13:09:47;12.90;99.90
25949;DHT22;13961;51.178;4.448;2023-03-31T13:12:22;12.80;99.90
25949;DHT22;13961;51.178;4.448;2023-03-31T13:14:50;12.80;99.90
25949;DHT22;13961;51.178;4.448;2023-03-31T13:17:30;12.80;99.90
25949;DHT22;13961;51.178;4.448;2023-03-31T13:22:44;13.00;99.90
25949;DHT22;13961;51.178;4.448;2023-03-31T13:28:07;13.40;99.90
25949;DHT22;13961;51.178;4.448;2023-03-31T13:33:12;13.60;99.90
25949;DHT22;13961;51.178;4.448;2023-03-31T13:35:40;13.40;99.90
25949;DHT22;13961;51.178;4.448;2023-03-31T13:43:52;13.20;99.90
25949;DHT22;13961;51.178;4.448;2023-03-31T13:46:29;13.00;99.90
25949;DHT22;13961;51.178;4.448;2023-03-31T13:52:03;13.10;99.90
25949;DHT22;13961;51.178;4.448;2023-03-31T14:05:27;13.10;99.90
25949;DHT22;13961;51.178;4.448;2023-03-31T14:07:58;13.00;99.90
25949;DHT22;13961;51.178;4.448;2023-03-31T14:10:34;12.80;99.90
25949;DHT22;13961;51.178;4.448;2023-03-31T14:15:36;12.70;99.90
25949;DHT22;13961;51.178;4.448;2023-03-31T14:18:04;12.70;99.90
25949;DHT22;13961;51.178;4.448;2023-03-31T14:20:50;12.60;99.90
25949;DHT22;13961;51.178;4.448;2023-03-31T14:26:11;12.50;99.90
25949;DHT22;13961;51.178;4.448;2023-03-31T14:28:55;12.40;99.90
25949;DHT22;13961;51.178;4.448;2023-03-31T14:31:27;12.30;99.90
25949;DHT22;13961;51.178;4.448;2023-03-31T14:34:15;12.40;99.90
25949;DHT22;13961;51.178;4.448;2023-03-31T14:37:05;12.40;99.90
25949;DHT22;13961;51.178;4.448;2023-03-31T14:39:36;12.30;99.90
25949;DHT22;13961;51.178;4.448;2023-03-31T14:42:13;12.40;99.90
25949;DHT22;13961;51.178;4.448;2023-03-31T14:44:41;12.40;99.90
25949;DHT22;13961;51.178;4.448;2023-03-31T14:47:15;12.40;99.90
25949;DHT22;13961;51.178;4.448;2023-03-31T14:49:44;12.30;99.90
25949;DHT22;13961;51.178;4.448;2023-03-31T14:52:19;12.10;99.90
25949;DHT22;13961;51.178;4.448;2023-03-31T14:54:46;12.40;99.90
25949;DHT22;13961;51.178;4.448;2023-03-31T14:57:36;12.30;99.90
25949;DHT22;13961;51.178;4.448;2023-03-31T15:00:05;12.40;99.90
25949;DHT22;13961;51.178;4.448;2023-03-31T15:02:39;12.40;99.90
25949;DHT22;13961;51.178;4.448;2023-03-31T15:05:07;12.40;99.90
25949;DHT22;13961;51.178;4.448;2023-03-31T15:07:35;12.50;99.90
25949;DHT22;13961;51.178;4.448;2023-03-31T15:10:03;12.40;99.90
25949;DHT22;13961;51.178;4.448;2023-03-31T15:12:29;12.40;99.90
25949;DHT22;13961;51.178;4.448;2023-03-31T15:15:05;12.40;99.90
25949;DHT22;13961;51.178;4.448;2023-03-31T15:17:37;12.60;99.90
25949;DHT22;13961;51.178;4.448;2023-03-31T15:20:40;12.60;99.90
25949;DHT22;13961;51.178;4.448;2023-03-31T15:23:25;12.50;99.90
25949;DHT22;13961;51.178;4.448;2023-03-31T15:26:02;12.40;99.90
25949;DHT22;13961;51.178;4.448;2023-03-31T15:28:42;12.30;99.90
25949;DHT22;13961;51.178;4.448;2023-03-31T15:31:09;12.30;99.90
25949;DHT22;13961;51.178;4.448;2023-03-31T15:33:35;12.10;99.90
25949;DHT22;13961;51.178;4.448;2023-03-31T15:36:08;12.20;99.90
25949;DHT22;13961;51.178;4.448;2023-03-31T15:38:36;12.20;99.90
25949;DHT22;13961;51.178;4.448;2023-03-31T15:41:02;12.00;99.90
25949;DHT22;13961;51.178;4.448;2023-03-31T15:43:45;11.90;99.90
25949;DHT22;13961;51.178;4.448;2023-03-31T15:46:18;12.00;99.90
25949;DHT22;13961;51.178;4.448;2023-03-31T15:48:50;12.00;99.90
25949;DHT22;13961;51.178;4.448;2023-03-31T15:51:29;11.80;99.90
25949;DHT22;13961;51.178;4.448;2023-03-31T15:53:55;11.80;99.90
25949;DHT22;13961;51.178;4.448;2023-03-31T15:59:04;11.90;99.90
25949;DHT22;13961;51.178;4.448;2023-03-31T16:01:34;11.80;99.90
25949;DHT22;13961;51.178;4.448;2023-03-31T16:04:06;11.70;99.90
25949;DHT22;13961;51.178;4.448;2023-03-31T16:09:14;11.70;99.90
25949;DHT22;13961;51.178;4.448;2023-03-31T16:11:44;11.80;99.90
25949;DHT22;13961;51.178;4.448;2023-03-31T16:14:24;11.80;99.90
25949;DHT22;13961;51.178;4.448;2023-03-31T16:17:04;11.80;99.90
25949;DHT22;13961;51.178;4.448;2023-03-31T16:19:41;11.90;99.90
25949;DHT22;13961;51.178;4.448;2023-03-31T16:22:15;11.70;99.90
25949;DHT22;13961;51.178;4.448;2023-03-31T16:24:42;11.70;99.90
25949;DHT22;13961;51.178;4.448;2023-03-31T16:27:11;11.70;99.90
25949;DHT22;13961;51.178;4.448;2023-03-31T16:29:37;11.70;99.90
25949;DHT22;13961;51.178;4.448;2023-03-31T16:32:14;11.80;99.90
25949;DHT22;13961;51.178;4.448;2023-03-31T16:35:01;11.90;99.90
25949;DHT22;13961;51.178;4.448;2023-03-31T16:37:27;11.90;99.90
25949;DHT22;13961;51.178;4.448;2023-03-31T16:39:53;11.80;99.90
25949;DHT22;13961;51.178;4.448;2023-03-31T16:42:20;11.90;99.90
25949;DHT22;13961;51.178;4.448;2023-03-31T16:44:46;11.90;99.90
25949;DHT22;13961;51.178;4.448;2023-03-31T16:47:12;11.90;99.90
25949;DHT22;13961;51.178;4.448;2023-03-31T16:49:39;11.90;99.90
25949;DHT22;13961;51.178;4.448;2023-03-31T16:52:05;11.90;99.90
25949;DHT22;13961;51.178;4.448;2023-03-31T16:54:31;11.90;99.90
25949;DHT22;13961;51.178;4.448;2023-03-31T16:56:58;11.90;99.90
25949;DHT22;13961;51.178;4.448;2023-03-31T16:59:24;11.90;99.90
25949;DHT22;13961;51.178;4.448;2023-03-31T17:01:50;11.90;99.90
25949;DHT22;13961;51.178;4.448;2023-03-31T17:04:16;11.90;99.90
25949;DHT22;13961;51.178;4.448;2023-03-31T17:06:42;11.90;99.90
25949;DHT22;13961;51.178;4.448;2023-03-31T17:09:08;11.80;99.90
25949;DHT22;13961;51.178;4.448;2023-03-31T17:11:35;11.80;99.90
25949;DHT22;13961;51.178;4.448;2023-03-31T17:14:00;11.70;99.90
25949;DHT22;13961;51.178;4.448;2023-03-31T17:16:27;11.60;99.90
25949;DHT22;13961;51.178;4.448;2023-03-31T17:18:53;11.70;99.90
25949;DHT22;13961;51.178;4.448;2023-03-31T17:21:19;11.70;99.90
25949;DHT22;13961;51.178;4.448;2023-03-31T17:23:45;11.70;99.90
25949;DHT22;13961;51.178;4.448;2023-03-31T17:26:11;11.60;99.90
25949;DHT22;13961;51.178;4.448;2023-03-31T17:28:37;11.40;99.90
25949;DHT22;13961;51.178;4.448;2023-03-31T17:31:17;11.40;99.90
25949;DHT22;13961;51.178;4.448;2023-03-31T17:33:43;11.40;99.90
25949;DHT22;13961;51.178;4.448;2023-03-31T17:36:10;11.50;99.90
25949;DHT22;13961;51.178;4.448;2023-03-31T17:38:36;11.50;99.90
25949;DHT22;13961;51.178;4.448;2023-03-31T17:41:05;11.60;99.90
25949;DHT22;13961;51.178;4.448;2023-03-31T17:43:31;11.50;99.90
25949;DHT22;13961;51.178;4.448;2023-03-31T17:46:03;11.30;99.90
25949;DHT22;13961;51.178;4.448;2023-03-31T17:48:31;11.20;99.90
25949;DHT22;13961;51.178;4.448;2023-03-31T17:51:10;11.30;99.90
25949;DHT22;13961;51.178;4.448;2023-03-31T17:53:38;11.30;99.90
25949;DHT22;13961;51.178;4.448;2023-03-31T17:56:04;11.20;99.90
25949;DHT22;13961;51.178;4.448;2023-03-31T17:58:31;11.20;99.90
25949;DHT22;13961;51.178;4.448;2023-03-31T18:00:57;11.20;99.90
25949;DHT22;13961;51.178;4.448;2023-03-31T18:03:23;11.10;99.90
25949;DHT22;13961;51.178;4.448;2023-03-31T18:05:49;11.00;99.90
25949;DHT22;13961;51.178;4.448;2023-03-31T18:08:16;11.00;99.90
25949;DHT22;13961;51.178;4.448;2023-03-31T18:10:42;11.10;99.90
25949;DHT22;13961;51.178;4.448;2023-03-31T18:13:08;11.10;99.90
25949;DHT22;13961;51.178;4.448;2023-03-31T18:15:34;11.10;99.90
25949;DHT22;13961;51.178;4.448;2023-03-31T18:18:00;11.20;99.90
25949;DHT22;13961;51.178;4.448;2023-03-31T18:20:25;11.10;99.90
25949;DHT22;13961;51.178;4.448;2023-03-31T18:22:52;11.00;99.90
25949;DHT22;13961;51.178;4.448;2023-03-31T18:25:18;11.00;99.90
25949;DHT22;13961;51.178;4.448;2023-03-31T18:27:43;10.90;99.90
25949;DHT22;13961;51.178;4.448;2023-03-31T18:30:12;11.00;99.90
25949;DHT22;13961;51.178;4.448;2023-03-31T18:32:38;11.00;99.90
25949;DHT22;13961;51.178;4.448;2023-03-31T18:35:04;11.00;99.90